createdAt,value
2022-08-26T08:39:06.997Z,31.60
2022-08-26T08:49:53.780Z,26.20
2022-08-26T08:58:02.185Z,26.80
2022-08-26T09:00:30.355Z,28.40
2022-08-26T09:03:45.703Z,28.50
2022-08-26T09:06:35.892Z,28.30
2022-08-26T09:09:32.966Z,29.10
2022-08-26T09:12:29.605Z,28.20
2022-08-26T09:15:51.016Z,28.80
2022-08-26T09:19:11.085Z,29.10
2022-08-26T09:22:00.377Z,29.40
2022-08-26T09:24:49.812Z,29.30
2022-08-26T09:27:47.272Z,29.30
2022-08-26T09:30:37.690Z,29.50
2022-08-26T09:33:30.567Z,30.00
2022-08-26T09:36:35.415Z,30.50
2022-08-26T09:39:29.686Z,30.80
2022-08-26T09:42:27.393Z,30.80
2022-08-26T09:55:26.350Z,29.10
2022-08-26T09:58:39.293Z,31.00
2022-08-26T10:01:35.406Z,29.80
2022-08-26T10:07:15.441Z,29.40
2022-08-26T10:10:06.154Z,29.00
2022-08-26T10:13:19.085Z,28.60
2022-08-26T10:16:22.487Z,29.20
2022-08-26T10:19:17.526Z,29.40
2022-08-26T10:22:18.944Z,29.70
2022-08-26T10:25:12.341Z,29.80
2022-08-26T10:28:19.085Z,30.00
2022-08-26T10:31:28.588Z,30.50
2022-08-26T10:34:17.943Z,30.80
2022-08-26T10:37:15.741Z,31.10
2022-08-26T10:40:13.242Z,31.00
2022-08-26T10:43:14.180Z,31.50
2022-08-26T10:46:08.360Z,30.60
2022-08-26T10:48:59.842Z,30.70
2022-08-26T10:51:52.136Z,31.10
2022-08-26T10:54:54.392Z,31.40
2022-08-26T10:58:04.738Z,31.60
2022-08-26T11:01:29.057Z,31.20
2022-08-26T11:04:47.536Z,31.10
2022-08-26T11:07:42.352Z,30.20
2022-08-26T11:10:40.590Z,29.90
2022-08-26T12:03:45.210Z,29.90
2022-08-26T12:06:45.027Z,31.60
2022-08-26T19:12:18.992Z,18.10
2022-08-26T19:15:06.691Z,16.20
2022-08-26T19:17:53.798Z,14.80
2022-08-26T19:20:46.500Z,14.70
2022-08-26T19:23:34.381Z,15.30
2022-08-26T19:26:21.437Z,15.40
2022-08-26T19:29:08.866Z,15.80
2022-08-26T19:31:56.940Z,15.30
2022-08-26T19:34:44.451Z,15.40
2022-08-26T19:37:31.520Z,15.70
2022-08-26T19:40:18.489Z,15.80
2022-08-26T19:43:06.875Z,15.90
2022-08-26T19:45:53.827Z,16.10
2022-08-26T19:48:44.411Z,16.30
2022-08-26T19:51:33.503Z,16.90
2022-08-26T19:54:22.688Z,16.20
2022-08-26T19:57:10.093Z,17.20
2022-08-26T19:59:58.822Z,16.30
2022-08-26T20:02:45.890Z,17.00
2022-08-26T20:05:33.652Z,16.20
2022-08-26T20:08:22.690Z,17.40
2022-08-26T20:11:14.928Z,16.50
2022-08-26T20:14:02.008Z,16.70
2022-08-26T20:16:49.305Z,16.70
2022-08-26T20:19:55.340Z,16.90
2022-08-26T20:22:42.511Z,17.00
2022-08-26T20:25:29.959Z,17.10
2022-08-26T20:28:17.063Z,17.00
2022-08-26T20:31:04.916Z,16.90
2022-08-26T20:33:52.523Z,16.90
2022-08-26T20:36:41.115Z,16.50
2022-08-26T20:39:30.966Z,16.60
2022-08-26T20:42:20.232Z,16.80
2022-08-26T20:45:08.213Z,17.10
2022-08-26T20:47:55.511Z,17.10
2022-08-26T20:50:42.741Z,17.20
2022-08-26T20:53:30.301Z,18.90
2022-08-26T20:56:23.572Z,17.30
2022-08-26T20:59:10.997Z,18.30
2022-08-26T21:01:58.525Z,17.60
2022-08-26T21:04:45.505Z,17.60
2022-08-26T21:07:32.997Z,17.50
2022-08-26T21:10:20.193Z,17.30
2022-08-26T21:13:10.234Z,17.50
2022-08-26T21:15:58.693Z,18.60
2022-08-26T21:18:47.279Z,17.50
2022-08-26T21:21:34.749Z,17.50
2022-08-26T21:24:22.059Z,17.50
2022-08-26T21:27:09.198Z,17.50
2022-08-26T21:29:56.775Z,17.60
2022-08-26T21:32:43.719Z,17.60
2022-08-26T21:35:31.215Z,17.60
2022-08-26T21:38:18.077Z,17.70
2022-08-26T21:41:23.939Z,17.60
2022-08-26T21:44:12.165Z,17.60
2022-08-26T21:46:59.517Z,17.90
2022-08-26T21:49:46.544Z,17.60
2022-08-26T21:52:34.067Z,17.70
2022-08-26T21:55:21.130Z,17.60
2022-08-26T21:58:09.586Z,17.40
2022-08-26T22:00:57.015Z,17.40
2022-08-26T22:03:47.068Z,17.50
2022-08-26T22:06:39.581Z,17.60
2022-08-26T22:09:29.447Z,17.70
2022-08-26T22:12:18.293Z,17.00
2022-08-26T22:15:06.190Z,17.90
2022-08-26T22:17:53.275Z,18.10
2022-08-26T22:20:40.613Z,18.20
2022-08-26T22:23:28.613Z,18.30
2022-08-26T22:26:25.307Z,18.40
2022-08-26T22:29:12.734Z,18.40
2022-08-26T22:32:01.366Z,18.40
2022-08-26T22:34:48.970Z,18.30
2022-08-26T22:37:36.015Z,18.40
2022-08-26T22:40:24.012Z,18.40
2022-08-26T22:43:12.803Z,18.50
2022-08-26T22:46:00.195Z,18.60
2022-08-26T22:48:51.956Z,18.40
2022-08-26T22:51:41.519Z,18.50
2022-08-26T22:54:28.846Z,18.60
2022-08-26T22:57:15.983Z,18.60
2022-08-26T23:00:04.294Z,18.50
2022-08-26T23:02:51.427Z,18.50
2022-08-26T23:05:40.360Z,18.60
2022-08-26T23:08:27.499Z,18.60
2022-08-26T23:11:15.419Z,18.60
2022-08-26T23:14:05.068Z,18.70
2022-08-26T23:16:54.171Z,18.50
2022-08-26T23:19:41.246Z,18.50
2022-08-26T23:22:29.046Z,18.60
2022-08-26T23:25:16.416Z,18.60
2022-08-26T23:28:04.189Z,18.60
2022-08-26T23:30:51.141Z,18.60
2022-08-26T23:33:56.838Z,18.60
2022-08-26T23:36:46.274Z,18.60
2022-08-26T23:39:35.250Z,18.70
2022-08-26T23:42:23.235Z,18.60
2022-08-26T23:45:13.430Z,18.70
2022-08-26T23:48:01.031Z,18.80
2022-08-26T23:51:07.292Z,18.70
2022-08-26T23:53:54.212Z,18.80
2022-08-26T23:56:41.715Z,18.80
2022-08-26T23:59:29.088Z,19.20
